Branson, Missouri
Current Conditions -  °F | °C
As of 12:45 PM on Thursday 30 Oct 2014 (Local Time) from KBBG Reporting Station
Broken Clouds Broken Clouds  
Wind Chill: 63°   Ceiling: 8500
Heat Index: 63°   Visibility: 10mi
Dew Point: 50°   Wind: 7mph
Humidity: 63%   Direction: 90°E
Pressure: 30.08"   Gusts: NA
Location:  36.65°N, 93.25°W
Report Text: KBBG 301745Z 09006KT 10SM BKN085 17/10 A3008
Loading
Personal Weather Stations






























Interactive Weather Map
Tropical Storm Tracking
New forecast layout! Learn more

10-Day Weather Forecast

Advertisements
Track Severe Weather on mobile